sensor_id;sensor_type;location;lat;lon;timestamp;P1;durP1;ratioP1;P2;durP2;ratioP2
12290;SDS011;6208;48.956;9.076;2023-03-01T00:00:24;12.83;;;11.00;;
12290;SDS011;6208;48.956;9.076;2023-03-01T00:03:08;15.70;;;10.80;;
12290;SDS011;6208;48.956;9.076;2023-03-01T00:05:53;11.80;;;9.83;;
12290;SDS011;6208;48.956;9.076;2023-03-01T00:08:37;11.03;;;9.77;;
12290;SDS011;6208;48.956;9.076;2023-03-01T00:11:27;17.33;;;10.53;;
12290;SDS011;6208;48.956;9.076;2023-03-01T00:14:12;13.50;;;9.87;;
12290;SDS011;6208;48.956;9.076;2023-03-01T00:16:56;16.20;;;10.60;;
12290;SDS011;6208;48.956;9.076;2023-03-01T00:19:41;13.03;;;10.27;;
12290;SDS011;6208;48.956;9.076;2023-03-01T00:22:26;14.23;;;10.33;;
12290;SDS011;6208;48.956;9.076;2023-03-01T00:25:12;13.20;;;10.70;;
12290;SDS011;6208;48.956;9.076;2023-03-01T00:27:56;14.13;;;10.40;;
12290;SDS011;6208;48.956;9.076;2023-03-01T00:30:41;12.57;;;10.40;;
12290;SDS011;6208;48.956;9.076;2023-03-01T00:33:25;14.27;;;10.30;;
12290;SDS011;6208;48.956;9.076;2023-03-01T00:36:11;12.23;;;10.30;;
12290;SDS011;6208;48.956;9.076;2023-03-01T00:38:57;12.27;;;10.10;;
12290;SDS011;6208;48.956;9.076;2023-03-01T00:41:42;13.13;;;10.53;;
12290;SDS011;6208;48.956;9.076;2023-03-01T00:44:27;13.43;;;10.57;;
12290;SDS011;6208;48.956;9.076;2023-03-01T00:47:12;13.97;;;10.03;;
12290;SDS011;6208;48.956;9.076;2023-03-01T00:49:57;11.50;;;9.43;;
12290;SDS011;6208;48.956;9.076;2023-03-01T00:52:42;12.87;;;9.83;;
12290;SDS011;6208;48.956;9.076;2023-03-01T00:55:26;17.97;;;9.87;;
12290;SDS011;6208;48.956;9.076;2023-03-01T00:58:11;15.17;;;10.17;;
12290;SDS011;6208;48.956;9.076;2023-03-01T01:00:55;13.63;;;10.87;;
12290;SDS011;6208;48.956;9.076;2023-03-01T01:03:40;12.63;;;10.77;;
12290;SDS011;6208;48.956;9.076;2023-03-01T01:06:25;12.97;;;10.50;;
12290;SDS011;6208;48.956;9.076;2023-03-01T01:09:12;12.17;;;9.67;;
12290;SDS011;6208;48.956;9.076;2023-03-01T01:12:02;12.20;;;9.90;;
12290;SDS011;6208;48.956;9.076;2023-03-01T01:14:46;14.20;;;10.93;;
12290;SDS011;6208;48.956;9.076;2023-03-01T01:17:31;11.87;;;10.47;;
12290;SDS011;6208;48.956;9.076;2023-03-01T01:20:16;12.90;;;10.40;;
12290;SDS011;6208;48.956;9.076;2023-03-01T01:23:01;14.03;;;9.87;;
12290;SDS011;6208;48.956;9.076;2023-03-01T01:25:46;13.63;;;10.10;;
12290;SDS011;6208;48.956;9.076;2023-03-01T01:28:30;12.93;;;10.13;;
12290;SDS011;6208;48.956;9.076;2023-03-01T01:31:15;13.80;;;10.73;;
12290;SDS011;6208;48.956;9.076;2023-03-01T01:34:01;13.33;;;10.00;;
12290;SDS011;6208;48.956;9.076;2023-03-01T01:36:52;12.53;;;9.47;;
12290;SDS011;6208;48.956;9.076;2023-03-01T01:39:37;13.47;;;9.73;;
12290;SDS011;6208;48.956;9.076;2023-03-01T01:42:21;15.80;;;10.90;;
12290;SDS011;6208;48.956;9.076;2023-03-01T01:45:24;12.47;;;10.57;;
12290;SDS011;6208;48.956;9.076;2023-03-01T01:48:13;14.97;;;11.13;;
12290;SDS011;6208;48.956;9.076;2023-03-01T01:51:02;13.97;;;10.47;;
12290;SDS011;6208;48.956;9.076;2023-03-01T01:53:48;12.73;;;10.30;;
12290;SDS011;6208;48.956;9.076;2023-03-01T01:56:36;14.07;;;11.07;;
12290;SDS011;6208;48.956;9.076;2023-03-01T01:59:24;14.80;;;10.80;;
12290;SDS011;6208;48.956;9.076;2023-03-01T02:02:09;11.73;;;9.83;;
12290;SDS011;6208;48.956;9.076;2023-03-01T02:04:56;15.17;;;10.67;;
12290;SDS011;6208;48.956;9.076;2023-03-01T02:07:47;12.40;;;10.77;;
12290;SDS011;6208;48.956;9.076;2023-03-01T02:10:33;12.70;;;10.83;;
12290;SDS011;6208;48.956;9.076;2023-03-01T02:13:18;13.90;;;11.50;;
12290;SDS011;6208;48.956;9.076;2023-03-01T02:16:04;15.40;;;10.70;;
12290;SDS011;6208;48.956;9.076;2023-03-01T02:18:51;11.43;;;9.80;;
12290;SDS011;6208;48.956;9.076;2023-03-01T02:21:57;15.43;;;10.47;;
12290;SDS011;6208;48.956;9.076;2023-03-01T02:31:03;13.60;;;10.43;;
12290;SDS011;6208;48.956;9.076;2023-03-01T02:34:09;14.67;;;11.17;;
12290;SDS011;6208;48.956;9.076;2023-03-01T02:39:42;13.53;;;10.47;;
12290;SDS011;6208;48.956;9.076;2023-03-01T02:42:35;13.70;;;11.07;;
12290;SDS011;6208;48.956;9.076;2023-03-01T02:45:25;13.93;;;10.73;;
12290;SDS011;6208;48.956;9.076;2023-03-01T02:48:10;15.17;;;11.47;;
12290;SDS011;6208;48.956;9.076;2023-03-01T02:51:10;14.10;;;11.17;;
12290;SDS011;6208;48.956;9.076;2023-03-01T02:54:07;12.93;;;10.70;;
12290;SDS011;6208;48.956;9.076;2023-03-01T02:56:54;14.33;;;12.07;;
12290;SDS011;6208;48.956;9.076;2023-03-01T02:59:39;15.13;;;11.17;;
12290;SDS011;6208;48.956;9.076;2023-03-01T03:02:27;14.50;;;11.00;;
12290;SDS011;6208;48.956;9.076;2023-03-01T03:05:21;13.87;;;11.40;;
12290;SDS011;6208;48.956;9.076;2023-03-01T03:08:08;13.50;;;10.70;;
12290;SDS011;6208;48.956;9.076;2023-03-01T03:10:53;15.10;;;10.90;;
12290;SDS011;6208;48.956;9.076;2023-03-01T03:13:37;13.97;;;11.87;;
12290;SDS011;6208;48.956;9.076;2023-03-01T03:16:31;15.33;;;11.70;;
12290;SDS011;6208;48.956;9.076;2023-03-01T03:19:16;15.63;;;11.20;;
12290;SDS011;6208;48.956;9.076;2023-03-01T03:22:01;16.43;;;11.67;;
12290;SDS011;6208;48.956;9.076;2023-03-01T03:24:46;13.77;;;10.80;;
12290;SDS011;6208;48.956;9.076;2023-03-01T03:27:30;16.83;;;11.83;;
12290;SDS011;6208;48.956;9.076;2023-03-01T03:30:16;16.83;;;11.57;;
12290;SDS011;6208;48.956;9.076;2023-03-01T03:33:02;13.60;;;11.20;;
12290;SDS011;6208;48.956;9.076;2023-03-01T03:35:48;13.70;;;10.77;;
12290;SDS011;6208;48.956;9.076;2023-03-01T03:38:33;13.40;;;10.27;;
12290;SDS011;6208;48.956;9.076;2023-03-01T03:41:18;18.23;;;11.63;;
12290;SDS011;6208;48.956;9.076;2023-03-01T03:44:03;14.03;;;11.03;;
12290;SDS011;6208;48.956;9.076;2023-03-01T03:46:47;16.87;;;11.77;;
12290;SDS011;6208;48.956;9.076;2023-03-01T03:49:33;13.00;;;11.23;;
12290;SDS011;6208;48.956;9.076;2023-03-01T03:52:17;16.17;;;12.70;;
12290;SDS011;6208;48.956;9.076;2023-03-01T03:55:01;17.20;;;12.03;;
12290;SDS011;6208;48.956;9.076;2023-03-01T03:57:47;15.33;;;11.27;;
12290;SDS011;6208;48.956;9.076;2023-03-01T04:00:35;12.03;;;10.23;;
12290;SDS011;6208;48.956;9.076;2023-03-01T04:03:21;13.77;;;11.17;;
12290;SDS011;6208;48.956;9.076;2023-03-01T04:06:06;18.50;;;11.57;;
12290;SDS011;6208;48.956;9.076;2023-03-01T04:08:51;14.50;;;11.07;;
12290;SDS011;6208;48.956;9.076;2023-03-01T04:11:41;15.67;;;12.37;;
12290;SDS011;6208;48.956;9.076;2023-03-01T04:14:26;14.17;;;11.57;;
12290;SDS011;6208;48.956;9.076;2023-03-01T04:17:10;13.23;;;10.70;;
12290;SDS011;6208;48.956;9.076;2023-03-01T04:19:56;15.80;;;12.07;;
12290;SDS011;6208;48.956;9.076;2023-03-01T04:22:42;16.47;;;11.93;;
12290;SDS011;6208;48.956;9.076;2023-03-01T04:25:27;15.70;;;11.63;;
12290;SDS011;6208;48.956;9.076;2023-03-01T04:28:12;17.63;;;12.63;;
12290;SDS011;6208;48.956;9.076;2023-03-01T04:30:57;15.93;;;11.77;;
12290;SDS011;6208;48.956;9.076;2023-03-01T04:33:46;14.97;;;11.90;;
12290;SDS011;6208;48.956;9.076;2023-03-01T04:36:35;14.50;;;11.70;;
12290;SDS011;6208;48.956;9.076;2023-03-01T04:39:20;17.20;;;12.63;;
12290;SDS011;6208;48.956;9.076;2023-03-01T04:42:04;18.23;;;12.77;;
12290;SDS011;6208;48.956;9.076;2023-03-01T04:44:49;15.87;;;12.67;;
12290;SDS011;6208;48.956;9.076;2023-03-01T04:47:34;17.73;;;13.33;;
12290;SDS011;6208;48.956;9.076;2023-03-01T04:50:22;15.67;;;12.17;;
12290;SDS011;6208;48.956;9.076;2023-03-01T04:53:06;16.47;;;12.57;;
12290;SDS011;6208;48.956;9.076;2023-03-01T04:55:51;18.00;;;12.90;;
12290;SDS011;6208;48.956;9.076;2023-03-01T04:58:35;15.57;;;12.47;;
12290;SDS011;6208;48.956;9.076;2023-03-01T05:01:20;14.07;;;11.40;;
12290;SDS011;6208;48.956;9.076;2023-03-01T05:04:05;16.93;;;11.67;;
12290;SDS011;6208;48.956;9.076;2023-03-01T05:06:51;18.57;;;11.80;;
12290;SDS011;6208;48.956;9.076;2023-03-01T05:09:37;18.63;;;12.50;;
12290;SDS011;6208;48.956;9.076;2023-03-01T05:12:22;14.30;;;12.07;;
12290;SDS011;6208;48.956;9.076;2023-03-01T05:15:06;20.70;;;12.40;;
12290;SDS011;6208;48.956;9.076;2023-03-01T05:17:51;16.23;;;12.40;;
12290;SDS011;6208;48.956;9.076;2023-03-01T05:20:37;15.90;;;12.03;;
12290;SDS011;6208;48.956;9.076;2023-03-01T05:23:22;16.87;;;12.57;;
12290;SDS011;6208;48.956;9.076;2023-03-01T05:26:08;15.83;;;12.37;;
12290;SDS011;6208;48.956;9.076;2023-03-01T05:28:52;17.40;;;13.13;;
12290;SDS011;6208;48.956;9.076;2023-03-01T05:31:42;18.63;;;13.67;;
12290;SDS011;6208;48.956;9.076;2023-03-01T05:34:32;17.43;;;12.13;;
12290;SDS011;6208;48.956;9.076;2023-03-01T05:37:17;18.67;;;13.13;;
12290;SDS011;6208;48.956;9.076;2023-03-01T05:40:03;15.83;;;12.43;;
12290;SDS011;6208;48.956;9.076;2023-03-01T05:42:49;16.83;;;13.17;;
12290;SDS011;6208;48.956;9.076;2023-03-01T05:45:36;19.63;;;12.93;;
12290;SDS011;6208;48.956;9.076;2023-03-01T05:48:22;17.50;;;13.20;;
12290;SDS011;6208;48.956;9.076;2023-03-01T05:51:06;17.97;;;14.00;;
12290;SDS011;6208;48.956;9.076;2023-03-01T05:53:51;17.70;;;13.40;;
12290;SDS011;6208;48.956;9.076;2023-03-01T05:56:36;18.13;;;12.90;;
12290;SDS011;6208;48.956;9.076;2023-03-01T05:59:20;16.37;;;12.63;;
12290;SDS011;6208;48.956;9.076;2023-03-01T06:02:04;17.43;;;13.80;;
12290;SDS011;6208;48.956;9.076;2023-03-01T06:04:49;18.10;;;13.60;;
12290;SDS011;6208;48.956;9.076;2023-03-01T06:07:34;23.13;;;14.23;;
12290;SDS011;6208;48.956;9.076;2023-03-01T06:10:19;19.93;;;13.00;;
12290;SDS011;6208;48.956;9.076;2023-03-01T06:13:05;18.83;;;14.10;;
12290;SDS011;6208;48.956;9.076;2023-03-01T06:15:50;20.83;;;13.83;;
12290;SDS011;6208;48.956;9.076;2023-03-01T06:18:35;19.00;;;13.83;;
12290;SDS011;6208;48.956;9.076;2023-03-01T06:21:20;16.47;;;13.10;;
12290;SDS011;6208;48.956;9.076;2023-03-01T06:24:05;17.90;;;13.13;;
12290;SDS011;6208;48.956;9.076;2023-03-01T06:26:52;19.80;;;14.37;;
12290;SDS011;6208;48.956;9.076;2023-03-01T06:29:36;18.60;;;13.03;;
12290;SDS011;6208;48.956;9.076;2023-03-01T06:32:20;19.17;;;14.10;;
12290;SDS011;6208;48.956;9.076;2023-03-01T06:35:05;19.57;;;13.97;;
12290;SDS011;6208;48.956;9.076;2023-03-01T06:37:50;18.87;;;14.13;;
12290;SDS011;6208;48.956;9.076;2023-03-01T06:40:34;17.40;;;14.00;;
12290;SDS011;6208;48.956;9.076;2023-03-01T06:43:19;18.47;;;13.90;;
12290;SDS011;6208;48.956;9.076;2023-03-01T06:46:04;19.80;;;14.40;;
12290;SDS011;6208;48.956;9.076;2023-03-01T06:48:50;21.10;;;14.40;;
12290;SDS011;6208;48.956;9.076;2023-03-01T06:51:35;19.30;;;14.23;;
12290;SDS011;6208;48.956;9.076;2023-03-01T06:54:20;20.37;;;14.47;;
12290;SDS011;6208;48.956;9.076;2023-03-01T06:57:05;20.03;;;14.03;;
12290;SDS011;6208;48.956;9.076;2023-03-01T06:59:50;19.77;;;13.77;;
12290;SDS011;6208;48.956;9.076;2023-03-01T07:02:35;15.53;;;13.30;;
12290;SDS011;6208;48.956;9.076;2023-03-01T07:05:19;18.70;;;12.87;;
12290;SDS011;6208;48.956;9.076;2023-03-01T07:08:04;21.23;;;13.97;;
12290;SDS011;6208;48.956;9.076;2023-03-01T07:10:54;18.80;;;13.87;;
12290;SDS011;6208;48.956;9.076;2023-03-01T07:13:39;18.40;;;13.63;;
12290;SDS011;6208;48.956;9.076;2023-03-01T07:16:24;19.53;;;14.90;;
12290;SDS011;6208;48.956;9.076;2023-03-01T07:19:09;16.23;;;13.03;;
12290;SDS011;6208;48.956;9.076;2023-03-01T07:21:53;19.67;;;14.70;;
12290;SDS011;6208;48.956;9.076;2023-03-01T07:24:40;18.10;;;14.50;;
12290;SDS011;6208;48.956;9.076;2023-03-01T07:27:25;20.20;;;14.03;;
12290;SDS011;6208;48.956;9.076;2023-03-01T07:30:09;20.80;;;14.67;;
12290;SDS011;6208;48.956;9.076;2023-03-01T07:32:55;20.40;;;14.03;;
12290;SDS011;6208;48.956;9.076;2023-03-01T07:35:41;19.80;;;13.33;;
12290;SDS011;6208;48.956;9.076;2023-03-01T07:38:26;17.17;;;13.50;;
12290;SDS011;6208;48.956;9.076;2023-03-01T07:41:10;19.63;;;14.37;;
12290;SDS011;6208;48.956;9.076;2023-03-01T07:43:55;17.93;;;13.40;;
12290;SDS011;6208;48.956;9.076;2023-03-01T07:46:40;20.43;;;14.27;;
12290;SDS011;6208;48.956;9.076;2023-03-01T07:49:24;21.70;;;14.63;;
12290;SDS011;6208;48.956;9.076;2023-03-01T07:52:10;18.57;;;14.10;;
12290;SDS011;6208;48.956;9.076;2023-03-01T07:54:55;19.70;;;13.70;;
12290;SDS011;6208;48.956;9.076;2023-03-01T07:57:40;19.63;;;13.90;;
12290;SDS011;6208;48.956;9.076;2023-03-01T08:00:25;20.27;;;14.07;;
12290;SDS011;6208;48.956;9.076;2023-03-01T08:03:09;17.73;;;14.33;;
12290;SDS011;6208;48.956;9.076;2023-03-01T08:05:54;19.50;;;15.10;;
12290;SDS011;6208;48.956;9.076;2023-03-01T08:08:39;24.87;;;14.47;;
12290;SDS011;6208;48.956;9.076;2023-03-01T08:11:24;16.90;;;13.10;;
12290;SDS011;6208;48.956;9.076;2023-03-01T08:14:08;18.40;;;13.10;;
12290;SDS011;6208;48.956;9.076;2023-03-01T08:16:54;18.33;;;14.67;;
12290;SDS011;6208;48.956;9.076;2023-03-01T08:19:38;19.73;;;13.20;;
12290;SDS011;6208;48.956;9.076;2023-03-01T08:22:23;20.33;;;13.57;;
12290;SDS011;6208;48.956;9.076;2023-03-01T08:25:08;19.17;;;13.77;;
12290;SDS011;6208;48.956;9.076;2023-03-01T08:27:52;19.40;;;14.03;;
12290;SDS011;6208;48.956;9.076;2023-03-01T08:30:37;18.07;;;12.50;;
12290;SDS011;6208;48.956;9.076;2023-03-01T08:33:21;17.53;;;13.07;;
12290;SDS011;6208;48.956;9.076;2023-03-01T08:36:06;17.83;;;13.70;;
12290;SDS011;6208;48.956;9.076;2023-03-01T08:38:51;15.47;;;12.77;;
12290;SDS011;6208;48.956;9.076;2023-03-01T08:41:36;18.27;;;13.60;;
12290;SDS011;6208;48.956;9.076;2023-03-01T08:44:21;17.60;;;12.83;;
12290;SDS011;6208;48.956;9.076;2023-03-01T08:47:06;16.93;;;13.47;;
12290;SDS011;6208;48.956;9.076;2023-03-01T08:49:50;16.43;;;13.10;;
12290;SDS011;6208;48.956;9.076;2023-03-01T08:52:36;18.93;;;12.77;;
12290;SDS011;6208;48.956;9.076;2023-03-01T08:55:20;14.97;;;12.53;;
12290;SDS011;6208;48.956;9.076;2023-03-01T08:58:05;18.53;;;13.60;;
12290;SDS011;6208;48.956;9.076;2023-03-01T09:00:49;19.37;;;13.07;;
12290;SDS011;6208;48.956;9.076;2023-03-01T09:03:34;18.07;;;13.07;;
12290;SDS011;6208;48.956;9.076;2023-03-01T09:06:19;18.87;;;13.10;;
12290;SDS011;6208;48.956;9.076;2023-03-01T09:09:04;18.43;;;15.07;;
12290;SDS011;6208;48.956;9.076;2023-03-01T09:11:49;20.33;;;14.33;;
12290;SDS011;6208;48.956;9.076;2023-03-01T09:14:34;18.77;;;13.77;;
12290;SDS011;6208;48.956;9.076;2023-03-01T09:17:21;17.50;;;13.63;;
12290;SDS011;6208;48.956;9.076;2023-03-01T09:20:05;18.37;;;13.70;;
12290;SDS011;6208;48.956;9.076;2023-03-01T09:22:50;15.93;;;13.23;;
12290;SDS011;6208;48.956;9.076;2023-03-01T09:25:35;17.53;;;13.13;;
12290;SDS011;6208;48.956;9.076;2023-03-01T09:28:19;17.37;;;13.83;;
12290;SDS011;6208;48.956;9.076;2023-03-01T09:31:06;18.20;;;12.27;;
12290;SDS011;6208;48.956;9.076;2023-03-01T09:33:52;19.80;;;14.30;;
12290;SDS011;6208;48.956;9.076;2023-03-01T09:36:37;19.37;;;13.90;;
12290;SDS011;6208;48.956;9.076;2023-03-01T09:39:21;19.53;;;14.83;;
12290;SDS011;6208;48.956;9.076;2023-03-01T09:42:06;19.77;;;14.47;;
12290;SDS011;6208;48.956;9.076;2023-03-01T09:45:02;17.40;;;12.80;;
12290;SDS011;6208;48.956;9.076;2023-03-01T09:47:49;17.30;;;13.90;;
12290;SDS011;6208;48.956;9.076;2023-03-01T09:50:38;20.63;;;13.23;;
12290;SDS011;6208;48.956;9.076;2023-03-01T09:53:27;18.53;;;14.00;;
12290;SDS011;6208;48.956;9.076;2023-03-01T09:56:17;15.93;;;12.93;;
12290;SDS011;6208;48.956;9.076;2023-03-01T10:01:59;20.70;;;13.40;;
12290;SDS011;6208;48.956;9.076;2023-03-01T10:08:25;17.73;;;13.37;;
12290;SDS011;6208;48.956;9.076;2023-03-01T10:11:44;15.80;;;12.73;;
12290;SDS011;6208;48.956;9.076;2023-03-01T10:14:36;17.13;;;13.00;;
12290;SDS011;6208;48.956;9.076;2023-03-01T10:17:36;18.70;;;13.80;;
12290;SDS011;6208;48.956;9.076;2023-03-01T10:23:07;16.77;;;13.90;;
12290;SDS011;6208;48.956;9.076;2023-03-01T10:28:58;19.37;;;14.30;;
12290;SDS011;6208;48.956;9.076;2023-03-01T10:31:47;19.67;;;13.50;;
12290;SDS011;6208;48.956;9.076;2023-03-01T10:34:34;16.87;;;13.43;;
12290;SDS011;6208;48.956;9.076;2023-03-01T10:37:19;17.17;;;13.43;;
12290;SDS011;6208;48.956;9.076;2023-03-01T10:40:07;15.30;;;13.63;;
12290;SDS011;6208;48.956;9.076;2023-03-01T10:42:52;18.87;;;13.90;;
12290;SDS011;6208;48.956;9.076;2023-03-01T10:45:38;20.23;;;13.57;;
12290;SDS011;6208;48.956;9.076;2023-03-01T10:48:26;18.07;;;13.70;;
12290;SDS011;6208;48.956;9.076;2023-03-01T10:51:17;17.70;;;14.43;;
12290;SDS011;6208;48.956;9.076;2023-03-01T10:54:03;16.90;;;14.17;;
12290;SDS011;6208;48.956;9.076;2023-03-01T10:57:03;19.50;;;13.93;;
12290;SDS011;6208;48.956;9.076;2023-03-01T10:59:51;18.27;;;14.17;;
12290;SDS011;6208;48.956;9.076;2023-03-01T11:03:01;17.13;;;13.17;;
12290;SDS011;6208;48.956;9.076;2023-03-01T11:05:55;18.80;;;14.00;;
12290;SDS011;6208;48.956;9.076;2023-03-01T11:09:15;16.50;;;13.73;;
12290;SDS011;6208;48.956;9.076;2023-03-01T11:12:01;17.10;;;13.63;;
12290;SDS011;6208;48.956;9.076;2023-03-01T11:14:47;17.87;;;14.17;;
12290;SDS011;6208;48.956;9.076;2023-03-01T11:17:33;19.10;;;14.17;;
12290;SDS011;6208;48.956;9.076;2023-03-01T11:20:27;16.90;;;13.03;;
12290;SDS011;6208;48.956;9.076;2023-03-01T11:23:18;18.60;;;14.30;;
12290;SDS011;6208;48.956;9.076;2023-03-01T11:26:07;16.50;;;13.60;;
12290;SDS011;6208;48.956;9.076;2023-03-01T11:28:53;16.87;;;13.10;;
12290;SDS011;6208;48.956;9.076;2023-03-01T11:31:41;17.30;;;13.63;;
12290;SDS011;6208;48.956;9.076;2023-03-01T11:37:28;16.93;;;12.80;;
12290;SDS011;6208;48.956;9.076;2023-03-01T11:40:26;16.47;;;13.53;;
12290;SDS011;6208;48.956;9.076;2023-03-01T11:46:44;18.40;;;13.03;;
12290;SDS011;6208;48.956;9.076;2023-03-01T11:56:27;20.10;;;13.33;;
12290;SDS011;6208;48.956;9.076;2023-03-01T11:59:23;16.53;;;12.97;;
12290;SDS011;6208;48.956;9.076;2023-03-01T12:08:06;15.73;;;13.03;;
12290;SDS011;6208;48.956;9.076;2023-03-01T12:20:12;16.10;;;13.73;;
12290;SDS011;6208;48.956;9.076;2023-03-01T12:26:33;16.43;;;13.97;;
12290;SDS011;6208;48.956;9.076;2023-03-01T12:29:30;17.03;;;12.90;;
12290;SDS011;6208;48.956;9.076;2023-03-01T12:32:26;16.87;;;13.17;;
12290;SDS011;6208;48.956;9.076;2023-03-01T12:35:33;15.60;;;13.47;;
12290;SDS011;6208;48.956;9.076;2023-03-01T12:38:48;16.67;;;13.77;;
12290;SDS011;6208;48.956;9.076;2023-03-01T12:41:47;20.40;;;14.67;;
12290;SDS011;6208;48.956;9.076;2023-03-01T12:48:17;17.53;;;13.53;;
12290;SDS011;6208;48.956;9.076;2023-03-01T12:51:08;16.40;;;13.73;;
12290;SDS011;6208;48.956;9.076;2023-03-01T12:54:14;16.20;;;14.07;;
12290;SDS011;6208;48.956;9.076;2023-03-01T12:57:08;16.37;;;13.97;;
12290;SDS011;6208;48.956;9.076;2023-03-01T13:00:27;18.00;;;14.57;;
12290;SDS011;6208;48.956;9.076;2023-03-01T13:06:40;22.13;;;14.13;;
12290;SDS011;6208;48.956;9.076;2023-03-01T13:15:33;20.67;;;14.87;;
12290;SDS011;6208;48.956;9.076;2023-03-01T13:21:03;18.70;;;13.53;;
12290;SDS011;6208;48.956;9.076;2023-03-01T13:23:49;17.43;;;13.93;;
12290;SDS011;6208;48.956;9.076;2023-03-01T13:26:36;18.03;;;13.57;;
12290;SDS011;6208;48.956;9.076;2023-03-01T13:29:53;18.90;;;14.53;;
12290;SDS011;6208;48.956;9.076;2023-03-01T13:32:40;16.20;;;13.13;;
12290;SDS011;6208;48.956;9.076;2023-03-01T13:35:41;16.25;;;14.10;;
12290;SDS011;6208;48.956;9.076;2023-03-01T13:44:36;16.75;;;13.88;;
12290;SDS011;6208;48.956;9.076;2023-03-01T13:47:22;18.50;;;14.00;;
12290;SDS011;6208;48.956;9.076;2023-03-01T13:50:06;16.83;;;14.00;;
12290;SDS011;6208;48.956;9.076;2023-03-01T13:53:03;15.15;;;13.32;;
12290;SDS011;6208;48.956;9.076;2023-03-01T13:56:00;14.85;;;13.20;;
12290;SDS011;6208;48.956;9.076;2023-03-01T13:58:54;15.55;;;13.80;;
12290;SDS011;6208;48.956;9.076;2023-03-01T14:01:43;18.15;;;13.80;;
12290;SDS011;6208;48.956;9.076;2023-03-01T14:04:28;17.08;;;13.93;;
12290;SDS011;6208;48.956;9.076;2023-03-01T14:07:20;16.95;;;14.32;;
12290;SDS011;6208;48.956;9.076;2023-03-01T14:10:07;15.57;;;13.60;;
12290;SDS011;6208;48.956;9.076;2023-03-01T14:13:13;17.15;;;13.88;;
12290;SDS011;6208;48.956;9.076;2023-03-01T14:25:16;14.25;;;12.77;;
12290;SDS011;6208;48.956;9.076;2023-03-01T14:31:01;17.00;;;14.13;;
12290;SDS011;6208;48.956;9.076;2023-03-01T14:33:46;16.50;;;13.20;;
12290;SDS011;6208;48.956;9.076;2023-03-01T14:36:39;15.00;;;13.23;;
12290;SDS011;6208;48.956;9.076;2023-03-01T14:39:24;15.95;;;13.32;;
12290;SDS011;6208;48.956;9.076;2023-03-01T14:42:10;15.73;;;13.95;;
12290;SDS011;6208;48.956;9.076;2023-03-01T14:44:56;16.08;;;14.00;;
12290;SDS011;6208;48.956;9.076;2023-03-01T14:47:43;15.63;;;13.70;;
12290;SDS011;6208;48.956;9.076;2023-03-01T14:50:32;17.20;;;13.38;;
12290;SDS011;6208;48.956;9.076;2023-03-01T14:53:19;16.10;;;13.38;;
12290;SDS011;6208;48.956;9.076;2023-03-01T14:56:12;17.65;;;13.73;;
12290;SDS011;6208;48.956;9.076;2023-03-01T14:58:58;18.70;;;13.80;;
12290;SDS011;6208;48.956;9.076;2023-03-01T15:01:43;14.07;;;12.52;;
12290;SDS011;6208;48.956;9.076;2023-03-01T15:04:28;16.20;;;13.13;;
12290;SDS011;6208;48.956;9.076;2023-03-01T15:07:14;15.98;;;13.55;;
12290;SDS011;6208;48.956;9.076;2023-03-01T15:10:00;15.70;;;13.00;;
12290;SDS011;6208;48.956;9.076;2023-03-01T15:12:45;15.63;;;13.63;;
12290;SDS011;6208;48.956;9.076;2023-03-01T15:15:31;19.83;;;13.77;;
12290;SDS011;6208;48.956;9.076;2023-03-01T15:18:35;22.88;;;13.60;;
12290;SDS011;6208;48.956;9.076;2023-03-01T15:21:22;16.77;;;12.75;;
12290;SDS011;6208;48.956;9.076;2023-03-01T15:27:03;16.40;;;13.07;;
12290;SDS011;6208;48.956;9.076;2023-03-01T15:29:51;15.45;;;13.02;;
12290;SDS011;6208;48.956;9.076;2023-03-01T15:32:41;16.13;;;13.20;;
12290;SDS011;6208;48.956;9.076;2023-03-01T15:35:39;14.05;;;12.63;;
12290;SDS011;6208;48.956;9.076;2023-03-01T15:38:33;15.05;;;12.90;;
12290;SDS011;6208;48.956;9.076;2023-03-01T15:41:23;18.00;;;13.65;;
12290;SDS011;6208;48.956;9.076;2023-03-01T15:44:15;18.27;;;13.23;;
12290;SDS011;6208;48.956;9.076;2023-03-01T15:47:30;16.88;;;12.05;;
12290;SDS011;6208;48.956;9.076;2023-03-01T15:50:25;16.83;;;13.23;;
12290;SDS011;6208;48.956;9.076;2023-03-01T15:53:14;16.05;;;12.20;;
12290;SDS011;6208;48.956;9.076;2023-03-01T15:55:58;18.25;;;12.48;;
12290;SDS011;6208;48.956;9.076;2023-03-01T15:58:43;14.20;;;12.70;;
12290;SDS011;6208;48.956;9.076;2023-03-01T16:01:28;16.45;;;13.02;;
12290;SDS011;6208;48.956;9.076;2023-03-01T16:04:13;16.55;;;13.30;;
12290;SDS011;6208;48.956;9.076;2023-03-01T16:07:06;21.60;;;13.57;;
12290;SDS011;6208;48.956;9.076;2023-03-01T16:09:53;15.27;;;12.50;;
12290;SDS011;6208;48.956;9.076;2023-03-01T16:12:37;15.70;;;12.43;;
12290;SDS011;6208;48.956;9.076;2023-03-01T16:15:23;16.75;;;12.60;;
12290;SDS011;6208;48.956;9.076;2023-03-01T16:18:12;17.00;;;13.33;;
12290;SDS011;6208;48.956;9.076;2023-03-01T16:20:56;16.83;;;13.37;;
12290;SDS011;6208;48.956;9.076;2023-03-01T16:23:40;15.93;;;12.63;;
12290;SDS011;6208;48.956;9.076;2023-03-01T16:26:25;15.27;;;13.10;;
12290;SDS011;6208;48.956;9.076;2023-03-01T16:29:09;17.60;;;12.90;;
12290;SDS011;6208;48.956;9.076;2023-03-01T16:31:54;18.77;;;13.47;;
12290;SDS011;6208;48.956;9.076;2023-03-01T16:34:39;16.10;;;13.27;;
12290;SDS011;6208;48.956;9.076;2023-03-01T16:37:23;16.20;;;12.67;;
12290;SDS011;6208;48.956;9.076;2023-03-01T16:40:15;16.30;;;13.30;;
12290;SDS011;6208;48.956;9.076;2023-03-01T16:43:04;16.87;;;13.50;;
12290;SDS011;6208;48.956;9.076;2023-03-01T16:45:51;15.77;;;12.57;;
12290;SDS011;6208;48.956;9.076;2023-03-01T16:48:36;16.67;;;12.90;;
12290;SDS011;6208;48.956;9.076;2023-03-01T16:51:21;17.07;;;12.33;;
12290;SDS011;6208;48.956;9.076;2023-03-01T16:54:06;17.43;;;12.73;;
12290;SDS011;6208;48.956;9.076;2023-03-01T16:56:50;17.80;;;12.83;;
12290;SDS011;6208;48.956;9.076;2023-03-01T16:59:35;14.73;;;13.13;;
12290;SDS011;6208;48.956;9.076;2023-03-01T17:02:21;17.07;;;13.30;;
12290;SDS011;6208;48.956;9.076;2023-03-01T17:05:06;15.17;;;12.67;;
12290;SDS011;6208;48.956;9.076;2023-03-01T17:07:51;16.33;;;13.20;;
12290;SDS011;6208;48.956;9.076;2023-03-01T17:10:35;16.47;;;13.33;;
12290;SDS011;6208;48.956;9.076;2023-03-01T17:13:19;16.53;;;13.43;;
12290;SDS011;6208;48.956;9.076;2023-03-01T17:16:08;16.20;;;13.10;;
12290;SDS011;6208;48.956;9.076;2023-03-01T17:18:55;14.83;;;12.77;;
12290;SDS011;6208;48.956;9.076;2023-03-01T17:21:39;19.40;;;13.33;;
12290;SDS011;6208;48.956;9.076;2023-03-01T17:24:24;15.63;;;13.17;;
12290;SDS011;6208;48.956;9.076;2023-03-01T17:27:08;17.87;;;13.13;;
12290;SDS011;6208;48.956;9.076;2023-03-01T17:29:55;17.10;;;14.23;;
12290;SDS011;6208;48.956;9.076;2023-03-01T17:32:39;19.07;;;14.97;;
12290;SDS011;6208;48.956;9.076;2023-03-01T17:35:24;21.50;;;14.73;;
12290;SDS011;6208;48.956;9.076;2023-03-01T17:38:11;19.23;;;14.10;;
12290;SDS011;6208;48.956;9.076;2023-03-01T17:40:58;21.73;;;14.60;;
12290;SDS011;6208;48.956;9.076;2023-03-01T17:43:43;19.20;;;14.00;;
12290;SDS011;6208;48.956;9.076;2023-03-01T17:46:28;20.03;;;14.53;;
12290;SDS011;6208;48.956;9.076;2023-03-01T17:49:13;19.07;;;15.27;;
12290;SDS011;6208;48.956;9.076;2023-03-01T17:51:58;18.50;;;14.73;;
12290;SDS011;6208;48.956;9.076;2023-03-01T17:54:42;21.20;;;15.40;;
12290;SDS011;6208;48.956;9.076;2023-03-01T17:57:27;19.90;;;15.30;;
12290;SDS011;6208;48.956;9.076;2023-03-01T18:00:11;19.80;;;14.47;;
12290;SDS011;6208;48.956;9.076;2023-03-01T18:02:57;22.20;;;15.27;;
12290;SDS011;6208;48.956;9.076;2023-03-01T18:05:42;18.57;;;14.70;;